createdAt,value
2018-12-13T00:00:18.593Z,15.37
2018-12-13T00:03:25.494Z,18.07
2018-12-13T00:06:33.509Z,17.13
2018-12-13T00:09:38.314Z,17.30
2018-12-13T00:12:44.809Z,16.87
2018-12-13T00:15:49.541Z,14.27
2018-12-13T00:18:54.293Z,14.77
2018-12-13T00:21:59.182Z,17.10
2018-12-13T00:25:03.976Z,13.30
2018-12-13T00:28:08.714Z,13.47
2018-12-13T00:31:13.458Z,14.17
2018-12-13T00:34:18.184Z,13.50
2018-12-13T00:37:22.922Z,15.13
2018-12-13T00:40:27.706Z,15.60
2018-12-13T00:43:32.428Z,16.77
2018-12-13T00:46:37.185Z,17.60
2018-12-13T00:49:41.878Z,16.83
2018-12-13T00:52:46.619Z,18.63
2018-12-13T00:55:51.332Z,16.77
2018-12-13T00:58:56.056Z,19.43
2018-12-13T01:02:00.780Z,19.77
2018-12-13T01:05:05.957Z,20.87
2018-12-13T01:08:11.764Z,16.57
2018-12-13T01:11:16.555Z,17.73
2018-12-13T01:14:21.290Z,20.00
2018-12-13T01:17:26.032Z,15.13
2018-12-13T01:20:30.918Z,14.13
2018-12-13T01:23:35.693Z,12.30
2018-12-13T01:26:40.529Z,16.50
2018-12-13T01:29:45.248Z,15.13
2018-12-13T01:32:51.145Z,13.03
2018-12-13T01:35:55.861Z,16.27
2018-12-13T01:39:00.597Z,13.97
2018-12-13T01:42:07.372Z,15.23
2018-12-13T01:45:12.129Z,13.67
2018-12-13T01:48:16.962Z,12.53
2018-12-13T01:51:21.703Z,12.17
2018-12-13T01:54:26.427Z,10.93
2018-12-13T01:57:31.147Z,12.43
2018-12-13T02:00:36.420Z,15.50
2018-12-13T02:03:41.182Z,12.03
2018-12-13T02:06:46.068Z,10.60
2018-12-13T02:09:50.818Z,14.97
2018-12-13T02:12:55.571Z,14.17
2018-12-13T02:16:00.306Z,15.40
2018-12-13T02:19:05.002Z,14.47
2018-12-13T02:22:09.743Z,16.53
2018-12-13T02:25:14.661Z,21.07
2018-12-13T02:28:19.390Z,16.77
2018-12-13T02:31:24.133Z,12.70
2018-12-13T02:34:28.865Z,15.33
2018-12-13T02:37:33.646Z,8.70
2018-12-13T02:40:38.477Z,12.47
2018-12-13T02:43:43.199Z,12.00
2018-12-13T02:46:47.991Z,15.33
2018-12-13T02:49:52.735Z,12.10
2018-12-13T02:52:57.616Z,9.83
2018-12-13T02:56:02.306Z,8.03
2018-12-13T02:59:07.060Z,9.40
2018-12-13T03:02:11.872Z,8.60
2018-12-13T03:05:16.671Z,8.17
2018-12-13T03:08:21.429Z,11.90
2018-12-13T03:11:26.193Z,12.70
2018-12-13T03:14:30.931Z,11.20
2018-12-13T03:17:35.637Z,10.47
2018-12-13T03:20:40.385Z,12.30
2018-12-13T03:23:45.090Z,14.80
2018-12-13T03:26:49.790Z,12.77
2018-12-13T03:29:54.533Z,21.73
2018-12-13T03:32:59.286Z,27.60
2018-12-13T03:36:04.073Z,17.20
2018-12-13T03:39:09.401Z,14.77
2018-12-13T03:42:14.235Z,11.23
2018-12-13T03:45:18.963Z,11.53
2018-12-13T03:48:23.680Z,11.07
2018-12-13T03:51:28.418Z,11.70
2018-12-13T03:54:33.117Z,8.77
2018-12-13T03:57:37.859Z,10.43
2018-12-13T04:00:42.709Z,10.77
2018-12-13T04:03:47.794Z,12.37
2018-12-13T04:06:52.549Z,11.90
2018-12-13T04:09:57.284Z,8.90
2018-12-13T04:13:02.043Z,9.63
2018-12-13T04:16:06.775Z,10.53
2018-12-13T04:19:11.495Z,10.37
2018-12-13T04:22:16.196Z,11.60
2018-12-13T04:25:20.899Z,9.43
2018-12-13T04:28:25.620Z,14.20
2018-12-13T04:31:30.437Z,12.57
2018-12-13T04:34:35.190Z,15.73
2018-12-13T04:37:39.914Z,16.77
2018-12-13T04:40:44.605Z,18.40
2018-12-13T04:43:49.308Z,20.63
2018-12-13T04:46:54.214Z,21.43
2018-12-13T04:49:58.945Z,20.33
2018-12-13T04:53:03.689Z,20.87
2018-12-13T04:56:08.425Z,25.70
2018-12-13T04:59:13.145Z,22.87
2018-12-13T05:02:18.027Z,25.87
2018-12-13T05:05:22.793Z,24.17
2018-12-13T05:08:27.794Z,21.47
2018-12-13T05:11:32.527Z,27.40
2018-12-13T05:14:37.269Z,26.37
2018-12-13T05:17:42.032Z,27.53
2018-12-13T05:20:46.756Z,28.20
2018-12-13T05:23:51.563Z,27.63
2018-12-13T05:26:56.261Z,36.40
2018-12-13T05:30:00.991Z,36.47
2018-12-13T05:33:05.746Z,59.80
2018-12-13T05:36:10.475Z,58.73
2018-12-13T05:39:15.278Z,49.40
2018-12-13T05:42:20.099Z,44.90
2018-12-13T05:45:24.838Z,110.70
2018-12-13T05:48:29.548Z,80.70
2018-12-13T05:51:34.344Z,44.93
2018-12-13T05:54:39.071Z,40.27
2018-12-13T05:57:43.805Z,37.83
2018-12-13T06:00:48.534Z,39.23
2018-12-13T06:03:53.365Z,37.50
2018-12-13T06:06:58.062Z,85.80
2018-12-13T06:10:02.838Z,50.27
2018-12-13T06:13:07.615Z,43.27
2018-12-13T06:16:12.356Z,36.50
2018-12-13T06:19:17.077Z,80.97
2018-12-13T06:22:21.834Z,60.17
2018-12-13T06:25:26.702Z,42.90
2018-12-13T06:28:31.465Z,40.07
2018-12-13T06:31:36.201Z,36.87
2018-12-13T06:34:41.003Z,36.93
2018-12-13T06:37:45.729Z,38.40
2018-12-13T06:40:50.501Z,39.27
2018-12-13T06:43:55.223Z,52.20
2018-12-13T06:46:59.965Z,70.80
2018-12-13T06:50:05.153Z,59.83
2018-12-13T06:53:09.882Z,53.10
2018-12-13T06:56:14.666Z,62.13
2018-12-13T06:59:19.402Z,48.37
2018-12-13T07:02:24.126Z,37.47
2018-12-13T07:05:28.858Z,36.73
2018-12-13T07:08:33.610Z,32.70
2018-12-13T07:11:38.786Z,32.70
2018-12-13T07:14:43.522Z,44.33
2018-12-13T07:17:48.292Z,39.70
2018-12-13T07:20:53.076Z,43.33
2018-12-13T07:23:57.854Z,25.67
2018-12-13T07:27:02.562Z,26.30
2018-12-13T07:30:08.889Z,33.13
2018-12-13T07:33:13.626Z,30.73
2018-12-13T07:36:18.412Z,23.50
2018-12-13T07:39:23.158Z,25.90
2018-12-13T07:42:28.025Z,24.57
2018-12-13T07:45:32.837Z,20.00
2018-12-13T07:48:37.710Z,22.17
2018-12-13T07:51:42.445Z,26.00
2018-12-13T07:54:47.140Z,19.17
2018-12-13T07:57:51.848Z,26.30
2018-12-13T08:00:56.605Z,48.10
2018-12-13T08:04:01.335Z,41.07
2018-12-13T08:07:06.101Z,50.83
2018-12-13T08:10:10.836Z,36.07
2018-12-13T08:13:15.611Z,54.17
2018-12-13T08:16:20.334Z,49.80
2018-12-13T08:19:27.081Z,53.73
2018-12-13T08:22:33.229Z,55.03
2018-12-13T08:25:37.954Z,56.53
2018-12-13T08:28:42.656Z,43.53
2018-12-13T08:31:47.378Z,36.40
2018-12-13T08:34:52.097Z,48.97
2018-12-13T08:37:56.806Z,48.07
2018-12-13T08:41:01.509Z,47.77
2018-12-13T08:44:07.654Z,50.63
2018-12-13T08:47:12.377Z,45.83
2018-12-13T08:50:17.078Z,40.80
2018-12-13T08:53:21.780Z,44.90
2018-12-13T08:56:27.690Z,38.00
2018-12-13T08:59:32.437Z,40.67
2018-12-13T09:02:37.171Z,39.63
2018-12-13T09:05:41.896Z,33.87
2018-12-13T09:08:46.642Z,43.43
2018-12-13T09:11:51.318Z,31.07
2018-12-13T09:14:56.034Z,34.50
2018-12-13T09:18:00.757Z,34.30
2018-12-13T09:21:05.463Z,32.50
2018-12-13T09:24:10.249Z,29.70
2018-12-13T09:27:15.028Z,28.43
2018-12-13T09:30:19.729Z,33.83
2018-12-13T09:33:24.465Z,28.80
2018-12-13T09:36:29.219Z,35.20
2018-12-13T09:39:33.909Z,155.60
2018-12-13T09:42:38.617Z,29.33
2018-12-13T09:45:43.311Z,24.67
2018-12-13T09:48:49.390Z,32.30
2018-12-13T09:51:54.386Z,18.30
2018-12-13T09:55:05.438Z,18.53
2018-12-13T09:58:05.900Z,20.27
2018-12-13T10:01:10.595Z,26.53
2018-12-13T10:04:15.303Z,18.20
2018-12-13T10:07:20.070Z,12.23
2018-12-13T10:10:25.086Z,12.83
2018-12-13T10:13:29.882Z,12.67
2018-12-13T10:16:34.588Z,23.00
2018-12-13T10:19:39.310Z,13.17
2018-12-13T10:22:44.023Z,11.00
2018-12-13T10:25:48.886Z,22.53
2018-12-13T10:28:53.715Z,12.23
2018-12-13T10:31:58.448Z,9.13
2018-12-13T10:35:03.146Z,5.93
2018-12-13T10:38:08.984Z,9.70
2018-12-13T10:41:13.663Z,11.13
2018-12-13T10:44:22.446Z,12.03
2018-12-13T10:47:27.154Z,9.03
2018-12-13T10:50:31.870Z,15.60
2018-12-13T10:53:36.561Z,17.80
2018-12-13T10:56:41.241Z,14.70
2018-12-13T10:59:45.924Z,17.40
2018-12-13T11:03:05.665Z,22.50
2018-12-13T11:06:10.349Z,21.27
2018-12-13T11:09:15.274Z,16.33
2018-12-13T11:12:22.010Z,19.90
2018-12-13T11:15:26.715Z,19.83
2018-12-13T11:18:31.433Z,19.40
2018-12-13T11:21:36.132Z,21.13
2018-12-13T11:24:40.862Z,24.30
2018-12-13T11:29:57.248Z,24.23
2018-12-13T11:33:01.985Z,21.53
2018-12-13T11:36:06.773Z,23.43
2018-12-13T11:39:11.457Z,12.23
2018-12-13T11:42:17.295Z,13.80
2018-12-13T11:45:22.095Z,14.33
2018-12-13T11:48:26.773Z,12.83
2018-12-13T11:51:31.621Z,28.50
2018-12-13T11:54:42.611Z,17.80
2018-12-13T11:57:47.314Z,20.80
2018-12-13T12:00:52.027Z,14.77
2018-12-13T12:03:56.738Z,20.00
2018-12-13T12:07:01.481Z,20.83
2018-12-13T12:10:06.501Z,21.70
2018-12-13T12:13:11.263Z,32.63
2018-12-13T12:16:15.988Z,38.33
2018-12-13T12:19:20.721Z,48.83
2018-12-13T12:22:25.481Z,578.87
2018-12-13T12:25:30.219Z,35.30
2018-12-13T12:28:35.074Z,25.87
2018-12-13T12:31:39.766Z,27.40
2018-12-13T12:34:44.539Z,20.97
2018-12-13T12:37:49.246Z,21.80
2018-12-13T12:40:54.000Z,25.30
2018-12-13T12:43:58.688Z,40.20
2018-12-13T12:47:03.595Z,21.10
2018-12-13T12:50:09.088Z,31.10
2018-12-13T12:53:13.842Z,27.10
2018-12-13T12:56:19.666Z,28.37
2018-12-13T12:59:24.356Z,47.17
2018-12-13T13:02:30.231Z,23.73
2018-12-13T13:05:34.990Z,27.40
2018-12-13T13:08:39.733Z,18.23
2018-12-13T13:11:44.520Z,25.43
2018-12-13T13:14:49.198Z,21.73
2018-12-13T13:17:53.885Z,26.07
2018-12-13T13:20:58.586Z,21.37
2018-12-13T13:24:03.318Z,13.77
2018-12-13T13:27:08.005Z,17.27
2018-12-13T13:30:12.921Z,29.93
2018-12-13T13:33:17.637Z,17.20
2018-12-13T13:36:22.381Z,17.20
2018-12-13T13:39:31.467Z,22.70
2018-12-13T13:42:33.833Z,21.37
2018-12-13T13:45:38.563Z,21.50
2018-12-13T13:48:43.415Z,25.00
2018-12-13T13:51:48.088Z,25.53
2018-12-13T13:54:52.812Z,17.20
2018-12-13T13:57:57.501Z,36.07
2018-12-13T14:01:02.201Z,32.10
2018-12-13T14:04:08.359Z,24.77
2018-12-13T14:07:13.070Z,22.47
2018-12-13T14:10:17.758Z,26.33
2018-12-13T14:13:22.462Z,37.43
2018-12-13T14:16:27.198Z,39.93
2018-12-13T14:19:31.928Z,39.43
2018-12-13T14:22:36.640Z,46.53
2018-12-13T14:25:41.353Z,63.23
2018-12-13T14:28:47.090Z,32.87
2018-12-13T14:31:51.772Z,29.03
2018-12-13T14:34:57.586Z,28.90
2018-12-13T14:38:02.361Z,27.50
2018-12-13T14:41:09.147Z,30.77
2018-12-13T14:44:36.788Z,32.10
2018-12-13T14:47:41.490Z,35.70
2018-12-13T14:50:46.190Z,38.20
2018-12-13T14:53:50.900Z,67.23
2018-12-13T14:56:55.626Z,34.03
2018-12-13T15:00:00.324Z,26.87
2018-12-13T15:03:07.119Z,34.73
2018-12-13T15:06:12.105Z,62.70
2018-12-13T15:09:16.807Z,37.90
2018-12-13T15:12:21.522Z,64.57
2018-12-13T15:15:26.367Z,35.70
2018-12-13T15:18:32.121Z,40.00
2018-12-13T15:21:36.835Z,59.07
2018-12-13T15:24:41.497Z,50.00
2018-12-13T15:27:46.229Z,47.13
2018-12-13T15:30:50.942Z,50.20
2018-12-13T15:33:55.677Z,45.63
2018-12-13T15:37:00.379Z,39.73
2018-12-13T15:40:05.406Z,39.17
2018-12-13T15:43:10.278Z,46.33
2018-12-13T15:46:14.977Z,44.97
2018-12-13T15:49:20.259Z,43.20
2018-12-13T15:52:25.008Z,55.00
2018-12-13T15:55:29.740Z,70.53
2018-12-13T15:58:34.425Z,81.97
2018-12-13T16:01:39.119Z,55.83
2018-12-13T16:04:43.837Z,60.00
2018-12-13T16:07:48.507Z,56.77
2018-12-13T16:10:53.221Z,46.70
2018-12-13T16:13:57.979Z,41.33
2018-12-13T16:17:02.781Z,43.77
2018-12-13T16:20:07.822Z,46.43
2018-12-13T16:23:13.221Z,57.10
2018-12-13T16:26:18.021Z,76.37
2018-12-13T16:29:22.717Z,63.90
2018-12-13T16:32:27.539Z,71.97
2018-12-13T16:35:32.261Z,62.87
2018-12-13T16:38:37.017Z,86.13
2018-12-13T16:41:41.795Z,73.73
2018-12-13T16:44:46.508Z,72.00
2018-12-13T16:47:51.207Z,64.60
2018-12-13T16:50:56.054Z,48.87
2018-12-13T16:54:00.759Z,58.33
2018-12-13T16:57:05.517Z,91.77
2018-12-13T17:00:10.450Z,107.63
2018-12-13T17:03:27.921Z,157.83
2018-12-13T17:06:32.646Z,142.97
2018-12-13T17:09:37.346Z,152.33
2018-12-13T17:12:42.048Z,147.30
2018-12-13T17:15:46.745Z,140.20
2018-12-13T17:18:51.647Z,137.37
2018-12-13T17:21:56.348Z,142.33
2018-12-13T17:25:01.504Z,152.43
2018-12-13T17:28:06.217Z,183.13
2018-12-13T17:31:10.921Z,188.60
2018-12-13T17:34:15.638Z,168.80
2018-12-13T17:37:20.337Z,116.60
2018-12-13T17:40:25.043Z,110.10
2018-12-13T17:43:29.813Z,98.10
2018-12-13T17:46:35.416Z,172.77
2018-12-13T17:49:40.275Z,264.77
2018-12-13T17:52:45.961Z,145.37
2018-12-13T17:55:50.792Z,123.53
2018-12-13T17:58:55.928Z,137.47
2018-12-13T18:02:00.638Z,215.47
2018-12-13T18:05:06.011Z,290.77
2018-12-13T18:08:10.736Z,117.13
2018-12-13T18:11:15.588Z,176.67
2018-12-13T18:14:20.306Z,114.37
2018-12-13T18:17:25.078Z,83.60
2018-12-13T18:20:30.344Z,70.43
2018-12-13T18:23:35.350Z,70.77
2018-12-13T18:26:40.459Z,64.60
2018-12-13T18:29:46.577Z,65.70
2018-12-13T18:32:51.637Z,64.40
2018-12-13T18:35:56.338Z,92.50
2018-12-13T18:39:01.061Z,76.07
2018-12-13T18:42:07.857Z,74.83
2018-12-13T18:45:12.620Z,83.60
2018-12-13T18:48:17.342Z,93.13
2018-12-13T18:51:22.097Z,88.10
2018-12-13T18:54:26.829Z,116.57
2018-12-13T18:57:31.533Z,131.73
2018-12-13T19:03:54.628Z,114.03
2018-12-13T19:07:00.021Z,319.07
2018-12-13T19:10:05.455Z,177.43
2018-12-13T19:13:10.194Z,135.37
2018-12-13T19:16:15.089Z,126.33
2018-12-13T19:19:22.361Z,163.63
2018-12-13T19:22:28.291Z,148.77
2018-12-13T19:25:33.083Z,146.90
2018-12-13T19:28:37.825Z,133.93
2018-12-13T19:31:44.426Z,167.07
2018-12-13T19:34:49.127Z,169.33
2018-12-13T19:37:54.554Z,140.10
2018-12-13T19:40:59.312Z,136.70
2018-12-13T19:44:04.120Z,146.30
2018-12-13T19:47:08.850Z,130.17
2018-12-13T19:50:13.606Z,102.00
2018-12-13T19:53:18.505Z,103.53
2018-12-13T19:56:23.566Z,101.80
2018-12-13T19:59:28.302Z,146.30
2018-12-13T20:02:33.049Z,104.23
2018-12-13T20:05:38.723Z,80.30
2018-12-13T20:08:44.050Z,103.43
2018-12-13T20:11:48.927Z,82.63
2018-12-13T20:14:53.805Z,86.47
2018-12-13T20:17:58.550Z,89.93
2018-12-13T20:21:03.286Z,92.97
2018-12-13T20:24:08.304Z,96.73
2018-12-13T20:27:13.546Z,104.43
2018-12-13T20:30:18.365Z,101.60
2018-12-13T20:33:23.118Z,107.70
2018-12-13T20:36:27.896Z,90.97
2018-12-13T20:39:32.607Z,84.50
2018-12-13T20:42:37.933Z,78.57
2018-12-13T20:45:43.426Z,78.80
2018-12-13T20:48:48.167Z,91.87
2018-12-13T20:51:52.961Z,89.83
2018-12-13T20:54:57.678Z,89.00
2018-12-13T20:58:05.439Z,93.47
2018-12-13T21:01:10.646Z,78.83
2018-12-13T21:04:15.390Z,79.03
2018-12-13T21:07:25.061Z,81.53
2018-12-13T21:10:29.823Z,101.87
2018-12-13T21:13:34.569Z,96.40
2018-12-13T21:16:39.284Z,70.97
2018-12-13T21:19:44.008Z,59.10
2018-12-13T21:22:48.827Z,61.77
2018-12-13T21:25:53.560Z,69.07
2018-12-13T21:28:58.318Z,79.33
2018-12-13T21:32:03.104Z,150.73
2018-12-13T21:35:08.241Z,99.43
2018-12-13T21:38:14.403Z,82.83
2018-12-13T21:41:19.134Z,74.00
2018-12-13T21:44:24.890Z,76.83
2018-12-13T21:47:29.669Z,68.27
2018-12-13T21:50:34.385Z,69.87
2018-12-13T21:53:39.127Z,67.57
2018-12-13T21:56:44.312Z,72.07
2018-12-13T21:59:49.059Z,76.30
2018-12-13T22:02:53.754Z,109.43
2018-12-13T22:05:58.489Z,84.90
2018-12-13T22:09:04.144Z,85.33
2018-12-13T22:12:10.964Z,89.33
2018-12-13T22:15:16.433Z,94.93
2018-12-13T22:18:21.196Z,100.87
2018-12-13T22:21:25.969Z,88.17
2018-12-13T22:24:30.702Z,85.87
2018-12-13T22:27:35.508Z,78.90
2018-12-13T22:30:40.260Z,73.57
2018-12-13T22:33:45.028Z,74.80
2018-12-13T22:36:50.146Z,71.07
2018-12-13T22:39:54.868Z,71.77
2018-12-13T22:42:59.633Z,70.60
2018-12-13T22:46:04.881Z,73.90
2018-12-13T22:49:09.663Z,70.83
2018-12-13T22:52:14.458Z,73.10
2018-12-13T22:55:19.293Z,63.37
2018-12-13T22:58:24.059Z,65.07
2018-12-13T23:01:28.983Z,65.90
2018-12-13T23:04:33.999Z,63.63
2018-12-13T23:07:39.923Z,51.67
2018-12-13T23:10:44.842Z,47.70
2018-12-13T23:13:49.630Z,48.97
2018-12-13T23:16:54.405Z,36.00
2018-12-13T23:19:59.139Z,33.47
2018-12-13T23:23:03.921Z,32.47
2018-12-13T23:26:08.678Z,36.13
2018-12-13T23:29:13.433Z,27.80
2018-12-13T23:32:18.193Z,31.20
2018-12-13T23:35:22.953Z,30.23
2018-12-13T23:38:27.717Z,28.33
2018-12-13T23:41:32.462Z,26.83
2018-12-13T23:44:37.210Z,58.37
2018-12-13T23:47:42.143Z,47.17
2018-12-13T23:50:46.887Z,39.40
2018-12-13T23:53:51.724Z,50.70
2018-12-13T23:56:56.505Z,42.17
